createdAt,value
2023-12-24T00:03:25.667Z,3.83
2023-12-24T00:08:29.898Z,3.25
2023-12-24T00:13:32.942Z,3.40
2023-12-24T00:18:34.807Z,3.42
2023-12-24T00:23:36.462Z,3.10
2023-12-24T00:28:38.036Z,2.85
2023-12-24T00:33:39.753Z,3.15
2023-12-24T00:38:41.407Z,2.90
2023-12-24T00:43:43.246Z,2.63
2023-12-24T00:48:44.958Z,3.83
2023-12-24T00:53:46.554Z,2.97
2023-12-24T00:58:48.081Z,2.83
2023-12-24T01:03:49.617Z,3.78
2023-12-24T01:08:51.174Z,3.38
2023-12-24T01:13:52.720Z,3.08
2023-12-24T01:18:54.354Z,4.43
2023-12-24T01:23:55.962Z,3.88
2023-12-24T01:28:57.577Z,2.88
2023-12-24T01:33:59.291Z,3.55
2023-12-24T01:39:00.953Z,3.10
2023-12-24T01:44:02.953Z,3.28
2023-12-24T01:49:05.096Z,3.60
2023-12-24T01:54:09.572Z,2.97
2023-12-24T01:59:14.618Z,3.90
2023-12-24T02:04:17.289Z,4.57
2023-12-24T02:09:18.809Z,3.50
2023-12-24T02:14:20.398Z,3.28
2023-12-24T02:19:22.168Z,3.80
2023-12-24T02:24:23.895Z,3.08
2023-12-24T02:29:31.355Z,3.55
2023-12-24T02:34:34.302Z,3.30
2023-12-24T02:39:43.252Z,2.78
2023-12-24T02:44:45.182Z,2.03
2023-12-24T02:49:46.824Z,1.83
2023-12-24T02:54:48.363Z,2.15
2023-12-24T02:59:50.011Z,2.53
2023-12-24T03:04:51.598Z,2.20
2023-12-24T03:09:53.183Z,2.38
2023-12-24T03:14:55.091Z,1.90
2023-12-24T03:19:56.732Z,2.75
2023-12-24T03:24:58.273Z,2.83
2023-12-24T03:29:59.842Z,2.40
2023-12-24T03:35:01.387Z,2.05
2023-12-24T03:40:02.943Z,1.75
2023-12-24T03:45:04.866Z,2.08
2023-12-24T03:50:06.762Z,2.13
2023-12-24T03:55:09.280Z,1.75
2023-12-24T04:00:11.285Z,1.92
2023-12-24T04:05:13.922Z,2.22
2023-12-24T04:10:15.552Z,2.20
2023-12-24T04:15:17.081Z,2.75
2023-12-24T04:20:18.820Z,3.00
2023-12-24T04:25:20.972Z,2.63
2023-12-24T04:30:22.546Z,3.42
2023-12-24T04:35:24.166Z,3.42
2023-12-24T04:40:25.817Z,4.10
2023-12-24T04:45:27.408Z,3.95
2023-12-24T04:50:29.044Z,4.20
2023-12-24T04:55:30.595Z,4.40
2023-12-24T05:00:32.200Z,4.18
2023-12-24T05:05:33.840Z,4.63
2023-12-24T05:10:35.412Z,4.68
2023-12-24T05:15:36.929Z,3.60
2023-12-24T05:20:38.500Z,4.53
2023-12-24T05:25:40.096Z,3.70
2023-12-24T05:30:41.701Z,4.00
2023-12-24T05:35:43.326Z,4.25
2023-12-24T05:40:44.987Z,3.75
2023-12-24T05:45:47.311Z,4.43
2023-12-24T05:50:48.957Z,4.10
2023-12-24T05:55:50.541Z,4.10
2023-12-24T06:00:52.540Z,4.25
2023-12-24T06:05:54.237Z,3.58
2023-12-24T06:10:55.947Z,4.05
2023-12-24T06:15:57.564Z,4.15
2023-12-24T06:20:59.343Z,3.63
2023-12-24T06:26:01.024Z,3.78
2023-12-24T06:31:02.901Z,4.68
2023-12-24T06:36:05.803Z,3.88
2023-12-24T06:41:07.425Z,3.90
2023-12-24T06:46:13.242Z,4.30
2023-12-24T06:51:15.081Z,4.05
2023-12-24T06:56:16.651Z,4.50
2023-12-24T07:01:18.202Z,4.38
2023-12-24T07:06:19.851Z,5.35
2023-12-24T07:11:21.417Z,4.25
2023-12-24T07:16:24.739Z,5.32
2023-12-24T07:21:26.365Z,4.20
2023-12-24T07:26:27.944Z,4.40
2023-12-24T07:31:29.523Z,4.85
2023-12-24T07:36:31.100Z,4.28
2023-12-24T07:41:32.858Z,4.10
2023-12-24T07:46:34.540Z,4.57
2023-12-24T07:51:36.074Z,4.82
2023-12-24T07:56:37.783Z,4.18
2023-12-24T08:01:39.447Z,5.35
2023-12-24T08:06:41.243Z,4.85
2023-12-24T08:11:42.849Z,3.65
2023-12-24T08:16:44.419Z,4.13
2023-12-24T08:21:45.996Z,3.85
2023-12-24T08:26:47.622Z,3.40
2023-12-24T08:31:49.158Z,3.45
2023-12-24T08:36:50.878Z,4.20
2023-12-24T08:41:52.481Z,3.47
2023-12-24T08:46:54.023Z,3.17
2023-12-24T08:51:55.723Z,4.15
2023-12-24T08:56:57.392Z,4.20
2023-12-24T09:01:58.995Z,3.92
2023-12-24T09:07:00.571Z,4.05
2023-12-24T09:12:02.502Z,4.13
2023-12-24T09:17:04.437Z,4.07
2023-12-24T09:22:06.006Z,3.60
2023-12-24T09:27:07.623Z,4.45
2023-12-24T09:32:09.320Z,3.40
2023-12-24T09:37:10.872Z,5.03
2023-12-24T09:42:12.505Z,4.07
2023-12-24T09:47:14.113Z,5.07
2023-12-24T09:52:16.149Z,4.00
2023-12-24T09:57:17.737Z,4.38
2023-12-24T10:02:19.357Z,3.38
2023-12-24T10:07:20.931Z,4.18
2023-12-24T10:12:22.685Z,4.50
2023-12-24T10:17:35.725Z,4.15
2023-12-24T10:22:37.837Z,3.45
2023-12-24T10:27:39.367Z,3.85
2023-12-24T10:32:43.352Z,3.47
2023-12-24T10:37:45.179Z,3.45
2023-12-24T10:42:48.980Z,4.10
2023-12-24T10:47:50.686Z,4.20
2023-12-24T10:52:54.097Z,4.53
2023-12-24T10:58:32.791Z,4.05
2023-12-24T11:03:51.100Z,3.95
2023-12-24T11:08:52.941Z,3.90
2023-12-24T11:13:54.484Z,3.55
2023-12-24T11:18:58.177Z,4.55
2023-12-24T11:24:15.983Z,3.92
2023-12-24T11:29:42.415Z,3.65
2023-12-24T11:34:44.172Z,4.10
2023-12-24T11:40:09.609Z,4.32
2023-12-24T11:45:24.592Z,5.30
2023-12-24T11:50:26.532Z,5.70
2023-12-24T11:55:29.593Z,5.13
2023-12-24T12:00:31.487Z,5.80
2023-12-24T12:05:33.338Z,4.90
2023-12-24T12:10:35.169Z,5.28
2023-12-24T12:15:36.831Z,6.47
2023-12-24T12:20:39.813Z,5.45
2023-12-24T12:25:41.474Z,5.32
2023-12-24T12:30:43.231Z,5.40
2023-12-24T12:35:44.943Z,5.50
2023-12-24T12:40:49.304Z,4.88
2023-12-24T12:45:53.146Z,5.05
2023-12-24T12:50:55.656Z,5.30
2023-12-24T12:56:08.966Z,4.53
2023-12-24T13:01:11.037Z,3.67
2023-12-24T13:06:13.255Z,4.93
2023-12-24T13:11:15.041Z,3.78
2023-12-24T13:16:22.388Z,4.80
2023-12-24T13:21:23.926Z,4.25
2023-12-24T13:26:26.728Z,4.03
2023-12-24T13:31:28.351Z,3.78
2023-12-24T13:36:30.122Z,3.00
2023-12-24T13:41:34.651Z,3.55
2023-12-24T13:46:38.225Z,3.63
2023-12-24T13:51:40.090Z,3.20
2023-12-24T13:56:41.722Z,3.15
2023-12-24T14:01:43.411Z,3.83
2023-12-24T14:06:45.108Z,3.90
2023-12-24T14:11:46.676Z,3.67
2023-12-24T14:16:49.526Z,3.17
2023-12-24T14:21:51.095Z,3.75
2023-12-24T14:26:52.620Z,4.20
2023-12-24T14:31:54.146Z,4.25
2023-12-24T14:36:55.657Z,4.75
2023-12-24T14:41:57.322Z,11.27
2023-12-24T14:46:58.838Z,4.20
2023-12-24T14:52:00.507Z,4.40
2023-12-24T14:57:02.231Z,5.18
2023-12-24T15:02:04.096Z,4.57
2023-12-24T15:07:07.047Z,5.10
2023-12-24T15:12:08.790Z,6.10
2023-12-24T15:17:11.887Z,7.88
2023-12-24T15:22:21.418Z,9.95
2023-12-24T15:27:22.985Z,6.78
2023-12-24T15:32:26.262Z,6.68
2023-12-24T15:37:34.506Z,6.60
2023-12-24T15:42:36.605Z,8.27
2023-12-24T15:47:38.592Z,6.63
2023-12-24T15:52:40.182Z,7.07
2023-12-24T15:57:41.759Z,7.45
2023-12-24T16:02:45.258Z,7.60
2023-12-24T16:07:46.807Z,6.38
2023-12-24T16:12:48.384Z,8.02
2023-12-24T16:17:50.056Z,7.20
2023-12-24T16:22:51.865Z,6.32
2023-12-24T16:27:53.821Z,6.00
2023-12-24T16:32:55.964Z,5.95
2023-12-24T16:37:57.700Z,6.15
2023-12-24T16:42:59.538Z,6.72
2023-12-24T16:48:02.129Z,6.38
2023-12-24T16:53:03.923Z,6.22
2023-12-24T16:58:05.538Z,5.57
2023-12-24T17:03:08.144Z,6.20
2023-12-24T17:08:09.916Z,7.15
2023-12-24T17:13:11.505Z,4.93
2023-12-24T17:18:13.755Z,6.65
2023-12-24T17:23:15.528Z,5.55
2023-12-24T17:28:17.194Z,5.65
2023-12-24T17:33:19.012Z,5.07
2023-12-24T17:38:20.739Z,6.28
2023-12-24T17:43:22.725Z,5.28
2023-12-24T17:48:24.486Z,5.05
2023-12-24T17:53:26.214Z,5.90
2023-12-24T17:58:27.822Z,5.65
2023-12-24T18:03:29.371Z,5.78
2023-12-24T18:08:30.975Z,6.88
2023-12-24T18:13:32.707Z,6.32
2023-12-24T18:18:34.450Z,6.00
2023-12-24T18:23:36.132Z,7.13
2023-12-24T18:28:37.700Z,6.70
2023-12-24T18:33:39.500Z,5.50
2023-12-24T18:43:43.879Z,4.95
2023-12-24T18:48:46.296Z,5.70
2023-12-24T18:53:51.732Z,5.57
2023-12-24T18:58:55.150Z,4.97
2023-12-24T19:03:57.161Z,4.47
2023-12-24T19:08:59.755Z,4.47
2023-12-24T19:14:02.447Z,3.85
2023-12-24T19:19:04.586Z,4.40
2023-12-24T19:24:06.202Z,4.10
2023-12-24T19:29:12.509Z,4.10
2023-12-24T19:34:15.022Z,4.40
2023-12-24T19:39:17.035Z,3.65
2023-12-24T19:44:18.652Z,4.72
2023-12-24T19:49:20.767Z,4.60
2023-12-24T19:54:22.507Z,4.95
2023-12-24T19:59:24.134Z,5.53
2023-12-24T20:04:25.767Z,5.00
2023-12-24T20:09:27.295Z,4.53
2023-12-24T20:14:29.038Z,4.70
2023-12-24T20:19:30.700Z,4.45
2023-12-24T20:24:34.010Z,4.60
2023-12-24T20:29:35.808Z,4.40
2023-12-24T20:34:37.541Z,6.22
2023-12-24T20:39:39.168Z,4.70
2023-12-24T20:44:41.093Z,4.82
2023-12-24T20:49:42.849Z,5.50
2023-12-24T20:54:45.997Z,4.88
2023-12-24T20:59:49.115Z,4.10
2023-12-24T21:04:51.247Z,4.53
2023-12-24T21:09:53.528Z,3.42
2023-12-24T21:14:55.124Z,4.28
2023-12-24T21:19:56.829Z,5.40
2023-12-24T21:24:58.379Z,4.20
2023-12-24T21:30:00.001Z,5.00
2023-12-24T21:35:02.605Z,4.03
2023-12-24T21:40:05.823Z,4.10
2023-12-24T21:45:08.425Z,4.55
2023-12-24T21:50:10.227Z,4.00
2023-12-24T21:55:11.792Z,4.38
2023-12-24T22:00:13.560Z,5.15
2023-12-24T22:05:16.900Z,4.85
2023-12-24T22:10:19.147Z,4.45
2023-12-24T22:15:20.716Z,4.78
2023-12-24T22:20:22.428Z,4.25
2023-12-24T22:25:24.019Z,4.55
2023-12-24T22:30:26.256Z,5.18
2023-12-24T22:35:28.846Z,4.63
2023-12-24T22:40:30.400Z,4.18
2023-12-24T22:45:33.723Z,4.53
2023-12-24T22:50:36.340Z,3.80
2023-12-24T22:55:38.689Z,4.55
2023-12-24T23:00:40.267Z,4.47
2023-12-24T23:05:43.898Z,3.83
2023-12-24T23:10:45.709Z,4.43
2023-12-24T23:15:47.267Z,4.38
2023-12-24T23:20:49.014Z,4.70
2023-12-24T23:25:51.092Z,3.92
2023-12-24T23:30:52.782Z,3.75
2023-12-24T23:36:05.409Z,3.50
2023-12-24T23:41:13.550Z,3.58
2023-12-24T23:46:15.385Z,3.08
2023-12-24T23:51:16.988Z,5.05
2023-12-24T23:56:18.663Z,4.82
